Time;durP1;ratioP1;P1;durP2;ratioP2;P2;SDS_P1;SDS_P2;PMS_P1;PMS_P2;Temp;Humidity;BMP_temperature;BMP_pressure;BME280_temperature;BME280_humidity;BME280_pressure;Samples;Min_cycle;Max_cycle;Signal;HPM_P1;HPM_P2
2022/10/27 00:01:33;;;;;;;2.95;1.65;;;;;;;16.57;63.07;97969.03;4866926;29;20138;-74
2022/10/27 00:03:58;;;;;;;6.75;2.03;;;;;;;16.68;63.25;97970.59;4837088;29;20746;-74
2022/10/27 00:06:24;;;;;;;2.97;1.92;;;;;;;16.53;62.86;97984.53;4864253;29;20217;-74
2022/10/27 00:08:50;;;;;;;7.30;1.90;;;;;;;16.46;63.45;97989.28;4851913;29;20235;-74
2022/10/27 00:11:16;;;;;;;3.72;1.45;;;;;;;16.38;63.52;97987.16;4867522;28;20239;-74
2022/10/27 00:13:41;;;;;;;2.05;1.65;;;;;;;16.34;63.71;97983.47;4852207;29;20729;-74
2022/10/27 00:16:14;;;;;;;3.30;1.23;;;;;;;16.38;63.38;97979.28;4883259;28;20383;-74
2022/10/27 00:18:41;;;;;;;2.03;1.25;;;;;;;16.28;63.67;97982.69;4868777;28;20233;-74
2022/10/27 00:21:09;;;;;;;4.20;1.65;;;;;;;16.51;62.62;97975.34;4851968;29;20277;-74
2022/10/27 00:23:36;;;;;;;6.20;1.50;;;;;;;16.50;61.72;97982.44;4866409;28;20429;-74
2022/10/27 00:26:02;;;;;;;4.07;1.27;;;;;;;16.26;62.21;97980.31;4884115;28;20449;-74
2022/10/27 00:28:28;;;;;;;4.30;1.40;;;;;;;16.08;62.63;97975.56;4883871;28;20244;-74
2022/10/27 00:31:06;;;;;;;6.05;1.80;;;;;;;16.17;62.95;97973.22;4882745;28;20290;-74
2022/10/27 00:33:32;;;;;;;3.78;1.40;;;;;;;16.08;63.28;97978.19;4869965;28;20237;-74
2022/10/27 00:36:12;;;;;;;2.53;1.05;;;;;;;16.26;62.74;97975.06;4868047;29;20100;-74
2022/10/27 00:38:38;;;;;;;4.97;1.85;;;;;;;16.06;63.52;97964.53;4884856;28;20285;-74
2022/10/27 00:41:05;;;;;;;4.13;1.73;;;;;;;16.05;63.79;97966.34;4867288;29;20717;-74
2022/10/27 00:43:33;;;;;;;3.90;1.70;;;;;;;16.13;63.86;97972.94;4867100;29;20303;-74
2022/10/27 00:46:33;;;;;;;2.78;1.40;;;;;;;16.29;63.64;97971.13;4868048;28;20169;-74
2022/10/27 00:49:08;;;;;;;2.60;1.40;;;;;;;16.25;64.03;97965.59;4865250;29;20310;-74
2022/10/27 00:51:35;;;;;;;2.65;1.30;;;;;;;16.18;64.21;97969.53;4866756;29;20315;-73
2022/10/27 00:54:01;;;;;;;3.70;1.40;;;;;;;16.11;64.51;97964.53;4883102;28;20190;-73
2022/10/27 00:56:26;;;;;;;3.20;1.50;;;;;;;16.10;64.23;97962.94;4896559;28;20209;-74
2022/10/27 00:58:52;;;;;;;4.15;1.88;;;;;;;16.14;64.92;97956.13;4874169;28;20285;-74
2022/10/27 01:01:17;;;;;;;2.90;1.80;;;;;;;16.15;64.85;97954.28;4867351;28;20495;-72
2022/10/27 01:03:43;;;;;;;2.35;1.23;;;;;;;16.23;64.61;97959.03;4889124;28;20209;-72
2022/10/27 01:06:09;;;;;;;2.55;1.25;;;;;;;16.24;64.55;97957.97;4882385;28;20603;-73
2022/10/27 01:08:35;;;;;;;2.20;1.65;;;;;;;16.25;64.84;97959.56;4866670;28;20210;-73
2022/10/27 01:11:01;;;;;;;2.72;1.40;;;;;;;16.27;64.82;97962.72;4880631;28;20277;-72
2022/10/27 01:13:26;;;;;;;4.43;1.67;;;;;;;16.34;64.74;97965.09;4882617;28;20203;-72
2022/10/27 01:16:20;;;;;;;5.18;1.80;;;;;;;16.42;64.92;97964.56;4851380;29;20497;-73
2022/10/27 01:19:01;;;;;;;2.22;1.30;;;;;;;16.44;64.64;97955.34;4868821;28;20751;-72
2022/10/27 01:21:38;;;;;;;6.05;1.85;;;;;;;16.36;64.85;97955.88;4850725;29;20239;-72
2022/10/27 01:24:38;;;;;;;2.63;1.45;;;;;;;16.47;64.23;97954.06;4851302;29;20139;-72
2022/10/27 01:27:32;;;;;;;5.00;1.85;;;;;;;16.29;64.30;97950.09;4882616;28;20191;-72
2022/10/27 01:30:04;;;;;;;4.40;1.83;;;;;;;16.30;64.42;97962.19;4862455;28;20223;-72
2022/10/27 01:33:01;;;;;;;6.35;1.65;;;;;;;16.36;63.99;97960.34;4879184;28;20198;-72
2022/10/27 01:35:39;;;;;;;6.80;2.03;;;;;;;16.46;62.85;97957.72;4882265;28;20214;-72
2022/10/27 01:38:18;;;;;;;3.03;1.45;;;;;;;16.39;62.65;97975.59;4863218;29;20219;-73
2022/10/27 01:41:22;;;;;;;6.97;1.60;;;;;;;16.26;62.75;97975.06;4888006;28;20243;-72
2022/10/27 01:43:50;;;;;;;3.92;1.75;;;;;;;16.00;63.48;97976.06;4865465;29;20425;-72
2022/10/27 01:46:16;;;;;;;2.55;1.40;;;;;;;15.87;63.61;97972.88;4877967;28;20129;-73
2022/10/27 01:48:41;;;;;;;4.22;1.85;;;;;;;15.81;64.41;97967.88;4866934;29;20223;-72
2022/10/27 01:51:06;;;;;;;4.22;1.85;;;;;;;15.79;63.93;97968.13;4850090;29;20503;-72
2022/10/27 01:53:35;;;;;;;4.38;1.60;;;;;;;15.82;64.34;97961.59;4866817;29;20257;-72
2022/10/27 01:56:03;;;;;;;3.15;1.80;;;;;;;15.82;64.94;97958.97;4851710;29;20797;-72
2022/10/27 01:58:47;;;;;;;3.42;1.48;;;;;;;15.92;64.48;97956.38;4868354;29;20702;-72
2022/10/27 02:01:31;;;;;;;4.82;1.95;;;;;;;15.80;64.72;97953.16;4865034;29;20160;-72
2022/10/27 02:04:09;;;;;;;3.78;1.58;;;;;;;15.95;65.03;97953.19;4866774;29;20198;-72
2022/10/27 02:06:40;;;;;;;3.60;1.70;;;;;;;15.98;64.98;97959.78;4866417;28;20537;-72
2022/10/27 02:09:26;;;;;;;2.10;1.45;;;;;;;15.95;65.06;97949.78;4869198;29;20222;-72
2022/10/27 02:11:53;;;;;;;3.08;1.00;;;;;;;16.04;65.02;97953.47;4866502;29;20612;-72
2022/10/27 02:14:19;;;;;;;3.67;2.13;;;;;;;16.09;65.20;97964.78;4850850;28;20582;-73
2022/10/27 02:16:46;;;;;;;3.10;1.55;;;;;;;16.05;64.79;97961.09;4876373;28;20242;-72
2022/10/27 02:19:32;;;;;;;3.45;1.77;;;;;;;16.21;64.25;97964.56;4875535;28;20606;-72
2022/10/27 02:21:59;;;;;;;4.80;1.63;;;;;;;16.03;64.44;97967.66;4863490;29;20198;-73
2022/10/27 02:24:25;;;;;;;4.00;1.58;;;;;;;15.98;64.61;97965.03;4868268;29;20275;-73
2022/10/27 02:26:55;;;;;;;3.72;1.63;;;;;;;16.05;64.75;97960.31;4866804;29;20380;-73
2022/10/27 02:29:28;;;;;;;2.95;1.48;;;;;;;16.09;64.86;97956.91;4835458;29;20195;-75
2022/10/27 02:31:56;;;;;;;2.00;1.30;;;;;;;16.07;64.72;97960.84;4866067;29;20190;-73
2022/10/27 02:34:23;;;;;;;3.70;1.30;;;;;;;16.01;64.64;97961.91;4851066;29;20521;-72
2022/10/27 02:36:48;;;;;;;2.88;1.27;;;;;;;15.95;64.66;97960.28;4849447;28;20715;-73
2022/10/27 02:39:14;;;;;;;3.72;1.70;;;;;;;15.93;64.46;97957.94;4848383;29;20298;-73
2022/10/27 02:41:39;;;;;;;2.45;1.10;;;;;;;15.98;64.12;97955.31;4865784;29;20689;-75
2022/10/27 02:44:04;;;;;;;3.15;1.00;;;;;;;15.89;63.55;97956.88;4849747;28;20642;-73
2022/10/27 02:46:29;;;;;;;3.75;1.45;;;;;;;15.79;63.90;97960.25;4865992;28;20580;-73
2022/10/27 02:48:55;;;;;;;4.47;2.17;;;;;;;15.77;63.86;97956.31;4865696;29;20368;-73
2022/10/27 02:51:20;;;;;;;4.85;1.50;;;;;;;15.64;63.63;97957.56;4865006;29;20189;-73
2022/10/27 02:53:45;;;;;;;3.17;1.67;;;;;;;15.57;64.03;97944.66;4868357;28;20650;-73
2022/10/27 02:56:14;;;;;;;3.67;1.50;;;;;;;15.50;64.16;97955.41;4898503;28;20613;-72
2022/10/27 02:58:39;;;;;;;4.18;1.80;;;;;;;15.52;64.14;97957.78;4871312;28;20272;-73
2022/10/27 03:01:04;;;;;;;3.92;1.40;;;;;;;15.47;64.46;97948.06;4868540;28;20282;-73
2022/10/27 03:03:30;;;;;;;4.50;1.45;;;;;;;15.47;64.48;97940.19;4868924;29;20251;-72
2022/10/27 03:05:55;;;;;;;3.55;1.42;;;;;;;15.48;64.68;97939.13;4871555;28;20221;-73
2022/10/27 03:08:20;;;;;;;2.15;1.20;;;;;;;15.50;64.67;97937.03;4857204;28;20282;-73
2022/10/27 03:10:46;;;;;;;4.28;1.33;;;;;;;15.50;64.50;97939.66;4884724;28;20195;-72
2022/10/27 03:13:11;;;;;;;1.92;1.33;;;;;;;15.49;64.72;97938.09;4869194;29;20277;-73
2022/10/27 03:15:37;;;;;;;4.00;1.38;;;;;;;15.49;64.75;97938.09;4853068;29;20286;-73
2022/10/27 03:18:02;;;;;;;3.85;1.65;;;;;;;15.54;64.70;97939.94;4870523;29;20211;-73
2022/10/27 03:20:27;;;;;;;5.78;1.83;;;;;;;15.51;64.85;97929.97;4894874;28;20243;-72
2022/10/27 03:22:53;;;;;;;4.45;1.50;;;;;;;15.48;65.49;97931.25;4868997;29;20223;-74
2022/10/27 03:25:18;;;;;;;1.77;1.10;;;;;;;15.51;65.10;97925.50;4852734;29;20199;-75
2022/10/27 03:27:44;;;;;;;1.38;1.08;;;;;;;15.53;65.44;97927.88;4853724;29;20648;-75
2022/10/27 03:30:13;;;;;;;2.85;1.13;;;;;;;15.58;65.30;97930.50;4868537;28;20206;-75
2022/10/27 03:32:38;;;;;;;2.80;1.08;;;;;;;15.55;65.25;97942.28;4868543;29;20491;-75
2022/10/27 03:35:04;;;;;;;2.65;1.23;;;;;;;15.57;65.16;97941.25;4853258;29;20279;-75
2022/10/27 03:37:30;;;;;;;3.35;1.98;;;;;;;15.61;66.16;97932.63;4865106;28;20295;-74
2022/10/27 03:39:55;;;;;;;1.77;1.33;;;;;;;15.69;65.76;97939.19;4853883;29;20783;-75
2022/10/27 03:42:20;;;;;;;1.80;1.13;;;;;;;15.74;65.17;97931.34;4853055;29;20219;-74
2022/10/27 03:44:46;;;;;;;1.60;1.17;;;;;;;15.74;65.44;97931.34;4834486;29;20285;-75
2022/10/27 03:47:11;;;;;;;1.95;1.30;;;;;;;15.73;65.66;97930.56;4851242;29;20290;-75
2022/10/27 03:49:37;;;;;;;2.60;1.30;;;;;;;15.76;65.63;97931.88;4884676;28;20275;-75
2022/10/27 03:52:02;;;;;;;3.20;0.98;;;;;;;15.79;65.58;97931.38;4837335;29;20626;-75
2022/10/27 03:54:31;;;;;;;1.85;1.45;;;;;;;15.89;65.51;97926.16;4871165;28;20176;-74
2022/10/27 03:56:56;;;;;;;2.63;1.40;;;;;;;15.79;65.55;97920.88;4853228;29;20203;-74
2022/10/27 03:59:22;;;;;;;2.10;1.35;;;;;;;15.83;65.81;97915.88;4853293;29;20181;-74
2022/10/27 04:01:47;;;;;;;2.85;1.48;;;;;;;15.88;66.62;97923.78;4880871;28;20290;-75
2022/10/27 04:04:12;;;;;;;3.58;1.42;;;;;;;16.00;66.65;97921.69;4852887;29;20203;-74
2022/10/27 04:06:38;;;;;;;3.22;1.30;;;;;;;16.04;66.04;97921.94;4867561;28;20267;-74
2022/10/27 04:09:03;;;;;;;3.33;1.20;;;;;;;16.05;65.58;97916.44;4867988;29;20207;-74
2022/10/27 04:11:29;;;;;;;1.42;1.10;;;;;;;16.08;65.77;97912.50;4852820;29;20169;-74
2022/10/27 04:13:54;;;;;;;4.85;1.50;;;;;;;16.07;65.31;97916.19;4852527;29;20255;-74
2022/10/27 04:16:19;;;;;;;1.95;1.30;;;;;;;16.00;65.21;97911.19;4883529;28;20255;-74
2022/10/27 04:18:47;;;;;;;2.30;1.40;;;;;;;16.01;65.01;97912.00;4883275;28;20413;-75
2022/10/27 04:21:13;;;;;;;3.45;1.58;;;;;;;15.92;65.01;97919.59;4841232;29;20263;-75
2022/10/27 04:23:39;;;;;;;2.45;1.30;;;;;;;15.91;65.01;97918.78;4852879;29;20354;-75
2022/10/27 04:26:04;;;;;;;4.50;1.75;;;;;;;15.84;64.24;97914.84;4853042;29;20638;-74
2022/10/27 04:28:30;;;;;;;3.80;1.58;;;;;;;15.85;65.10;97921.66;4836696;29;20214;-74
2022/10/27 04:30:55;;;;;;;4.32;1.52;;;;;;;15.82;65.58;97914.31;4899586;28;20333;-74
2022/10/27 04:33:20;;;;;;;1.85;1.60;;;;;;;15.83;65.47;97914.03;4884241;28;20591;-74
2022/10/27 04:35:46;;;;;;;2.45;1.40;;;;;;;15.85;65.36;97914.59;4867891;28;20298;-74
2022/10/27 04:38:11;;;;;;;2.10;1.30;;;;;;;15.90;65.08;97917.22;4866112;28;20722;-75
2022/10/27 04:40:36;;;;;;;2.28;0.90;;;;;;;15.93;64.74;97915.13;4851607;29;20173;-75
2022/10/27 04:43:02;;;;;;;4.00;1.02;;;;;;;15.89;65.35;97920.88;4867515;29;20525;-74
2022/10/27 04:45:27;;;;;;;1.95;1.10;;;;;;;15.90;65.30;97914.59;4868787;28;20532;-75
2022/10/27 04:47:52;;;;;;;4.43;2.03;;;;;;;15.96;65.88;97919.88;4868963;29;20223;-74
2022/10/27 04:50:18;;;;;;;5.75;2.10;;;;;;;16.07;68.48;97911.75;4893216;28;20255;-75
2022/10/27 04:53:00;;;;;;;3.17;1.60;;;;;;;16.31;67.34;97913.81;4851830;29;20180;-75
2022/10/27 04:55:27;;;;;;;3.95;2.00;;;;;;;16.27;66.47;97913.56;4867035;29;20168;-75
2022/10/27 04:57:53;;;;;;;3.03;1.67;;;;;;;16.29;65.74;97908.06;4867268;29;20189;-75
2022/10/27 05:00:18;;;;;;;3.78;1.90;;;;;;;16.10;65.08;97908.56;4891794;28;20708;-74
2022/10/27 05:02:44;;;;;;;4.57;2.17;;;;;;;15.98;64.38;97907.25;4865797;29;20215;-75
2022/10/27 05:05:09;;;;;;;3.58;2.38;;;;;;;15.84;64.50;97907.75;4868579;29;20266;-75
2022/10/27 05:07:35;;;;;;;2.90;2.15;;;;;;;15.67;65.58;97909.78;4865922;28;20370;-75
2022/10/27 05:10:00;;;;;;;5.20;1.88;;;;;;;15.67;65.53;97902.69;4850625;29;20180;-74
2022/10/27 05:12:25;;;;;;;3.20;2.10;;;;;;;15.73;65.46;97901.66;4865948;29;20641;-75
2022/10/27 05:14:51;;;;;;;4.20;3.08;;;;;;;15.74;65.55;97905.84;4849933;28;20295;-75
2022/10/27 05:17:16;;;;;;;5.05;3.10;;;;;;;15.73;66.02;97906.16;4868030;28;20171;-75
2022/10/27 05:19:41;;;;;;;5.50;2.95;;;;;;;15.79;66.35;97899.88;4865651;29;20270;-74
2022/10/27 05:22:07;;;;;;;4.30;2.35;;;;;;;15.88;66.78;97903.53;4849564;29;20242;-75
2022/10/27 05:24:32;;;;;;;3.63;2.17;;;;;;;15.99;66.68;97898.31;4850133;29;20188;-74
2022/10/27 05:26:57;;;;;;;5.18;2.47;;;;;;;16.08;66.84;97897.53;4866047;29;20243;-75
2022/10/27 05:29:24;;;;;;;3.75;2.00;;;;;;;16.12;66.96;97897.78;4866051;29;20270;-75
2022/10/27 05:31:49;;;;;;;2.30;1.77;;;;;;;16.16;66.59;97893.63;4870256;28;20286;-75
2022/10/27 05:34:15;;;;;;;2.47;1.45;;;;;;;16.31;66.52;97889.41;4867503;28;20244;-75
2022/10/27 05:36:40;;;;;;;3.60;1.75;;;;;;;16.33;67.51;97885.47;4864632;29;20581;-74
2022/10/27 05:39:05;;;;;;;5.57;2.33;;;;;;;16.52;67.13;97890.16;4865664;29;20199;-74
2022/10/27 05:41:31;;;;;;;4.30;1.73;;;;;;;16.63;67.52;97887.25;4866203;28;20182;-74
2022/10/27 05:43:56;;;;;;;3.75;2.05;;;;;;;16.75;66.95;97894.06;4850992;29;20287;-74
2022/10/27 05:46:21;;;;;;;2.72;1.67;;;;;;;16.74;66.00;97892.50;4849655;29;20259;-74
2022/10/27 05:48:47;;;;;;;3.70;1.63;;;;;;;16.71;66.24;97885.94;4864843;29;20204;-74
2022/10/27 05:51:12;;;;;;;5.85;2.22;;;;;;;16.65;66.55;97900.91;4850854;29;20247;-74
2022/10/27 05:53:37;;;;;;;4.03;2.40;;;;;;;16.63;66.73;97895.13;4868736;29;20176;-75
2022/10/27 05:56:03;;;;;;;5.13;2.35;;;;;;;16.67;66.77;97898.03;4867128;28;20211;-74
2022/10/27 05:58:28;;;;;;;4.95;2.45;;;;;;;16.75;67.40;97899.34;4851588;29;20108;-74
2022/10/27 06:00:57;;;;;;;6.15;2.30;;;;;;;16.86;67.49;97893.00;4867665;29;20308;-74
2022/10/27 06:03:24;;;;;;;3.30;2.10;;;;;;;16.93;67.29;97903.25;4867068;28;20300;-74
2022/10/27 06:05:50;;;;;;;3.22;1.80;;;;;;;16.93;66.85;97888.28;4866473;29;20340;-74
2022/10/27 06:08:16;;;;;;;4.22;1.88;;;;;;;16.94;66.93;97894.31;4851050;29;20206;-74
2022/10/27 06:10:41;;;;;;;6.95;2.63;;;;;;;16.99;66.88;97892.47;4850655;29;20284;-75
2022/10/27 06:13:09;;;;;;;4.88;2.20;;;;;;;17.00;66.71;97896.66;4849655;29;20191;-75
2022/10/27 06:15:35;;;;;;;5.25;1.70;;;;;;;16.95;67.07;97893.28;4866667;28;20224;-74
2022/10/27 06:18:01;;;;;;;3.90;1.70;;;;;;;16.94;66.69;97902.22;4866946;29;20576;-74
2022/10/27 06:20:27;;;;;;;2.38;1.30;;;;;;;16.93;66.92;97901.44;4865547;29;20211;-74
2022/10/27 06:22:52;;;;;;;5.65;1.60;;;;;;;17.00;66.40;97896.66;4867403;29;20105;-74
2022/10/27 06:25:17;;;;;;;4.40;2.20;;;;;;;16.96;65.94;97900.88;4865690;29;20226;-74
2022/10/27 06:27:43;;;;;;;4.65;1.20;;;;;;;16.87;65.73;97905.13;4863980;28;20677;-74
2022/10/27 06:30:08;;;;;;;2.47;1.48;;;;;;;16.86;64.83;97906.16;4852104;29;20357;-75
2022/10/27 06:32:38;;;;;;;3.83;1.95;;;;;;;16.78;64.87;97911.97;4869053;29;20324;-74
2022/10/27 06:35:04;;;;;;;5.30;1.90;;;;;;;16.60;64.88;97918.53;4869360;29;20211;-74
2022/10/27 06:37:29;;;;;;;1.98;1.65;;;;;;;16.55;64.79;97927.22;4864620;28;20209;-75
2022/10/27 06:39:55;;;;;;;2.33;1.33;;;;;;;16.45;64.98;97927.22;4868060;29;20300;-74
2022/10/27 06:42:21;;;;;;;3.83;1.40;;;;;;;16.29;64.85;97932.47;4852006;29;20233;-74
2022/10/27 06:44:47;;;;;;;3.65;2.28;;;;;;;16.16;64.77;97933.03;4882530;28;20229;-74
2022/10/27 06:47:13;;;;;;;4.03;2.15;;;;;;;16.22;65.46;97941.69;4867839;29;20758;-74
2022/10/27 06:49:41;;;;;;;6.28;2.80;;;;;;;16.21;65.89;97937.47;4866189;29;20315;-75
2022/10/27 06:52:06;;;;;;;7.55;4.72;;;;;;;16.24;65.78;97942.22;4851231;29;20678;-75
2022/10/27 06:54:32;;;;;;;6.90;4.18;;;;;;;16.28;65.47;97941.44;4868171;29;20335;-74
2022/10/27 06:56:57;;;;;;;6.50;3.60;;;;;;;16.33;65.57;97950.34;4852312;29;20649;-74
2022/10/27 06:59:22;;;;;;;3.85;2.80;;;;;;;16.38;65.56;97948.53;4842331;29;20242;-74
2022/10/27 07:01:47;;;;;;;4.85;2.45;;;;;;;16.42;65.80;97949.59;4868799;28;20618;-75
2022/10/27 07:04:13;;;;;;;3.00;1.98;;;;;;;16.47;65.64;97943.53;4867932;29;20614;-75
2022/10/27 07:06:38;;;;;;;3.50;1.95;;;;;;;16.55;65.73;97953.50;4852445;29;20703;-74
2022/10/27 07:09:03;;;;;;;4.72;2.65;;;;;;;16.58;65.87;97962.72;4851750;29;20772;-75
2022/10/27 07:11:29;;;;;;;4.10;2.50;;;;;;;16.62;65.92;97964.56;4864469;29;20184;-74
2022/10/27 07:13:54;;;;;;;3.63;2.58;;;;;;;16.70;65.27;97962.47;4868063;28;20300;-74
2022/10/27 07:16:20;;;;;;;3.63;2.40;;;;;;;16.77;65.45;97955.09;4833553;29;20290;-75
2022/10/27 07:18:45;;;;;;;4.72;2.38;;;;;;;16.78;65.34;97961.94;4867513;29;20195;-75
2022/10/27 07:21:11;;;;;;;2.80;2.08;;;;;;;16.81;65.46;97962.19;4826811;28;1212954;-75
2022/10/27 07:23:36;;;;;;;4.07;2.28;;;;;;;16.85;65.43;97963.25;4869221;29;20190;-75
2022/10/27 07:26:02;;;;;;;3.47;2.45;;;;;;;16.84;65.31;97960.88;4868203;29;20168;-75
2022/10/27 07:28:27;;;;;;;5.25;2.70;;;;;;;16.87;65.49;97965.63;4884817;28;20195;-75
2022/10/27 07:30:54;;;;;;;4.25;2.38;;;;;;;16.91;65.81;97966.66;4865971;29;20595;-75
2022/10/27 07:33:19;;;;;;;4.47;2.63;;;;;;;16.97;65.94;97976.13;4885001;28;20637;-74
2022/10/27 07:35:48;;;;;;;7.55;4.38;;;;;;;17.11;66.25;97970.31;4853356;29;20190;-74
2022/10/27 07:38:13;;;;;;;4.75;3.60;;;;;;;17.12;65.69;97975.31;4868872;29;20359;-75
2022/10/27 07:40:38;;;;;;;10.43;6.35;;;;;;;17.14;65.11;97967.16;4852837;29;20285;-75
2022/10/27 07:43:04;;;;;;;14.13;8.95;;;;;;;17.18;66.29;97968.19;4853059;29;20279;-75
2022/10/27 07:45:29;;;;;;;16.20;9.85;;;;;;;17.19;66.18;97972.41;4848314;29;20293;-75
2022/10/27 07:47:56;;;;;;;17.35;9.65;;;;;;;17.23;66.41;97973.44;4853337;29;20286;-75
2022/10/27 07:50:23;;;;;;;9.35;5.80;;;;;;;17.31;66.29;97977.38;4868274;29;20229;-75
2022/10/27 07:52:51;;;;;;;8.18;4.32;;;;;;;17.36;66.48;97972.09;4853168;29;20275;-74
2022/10/27 07:55:19;;;;;;;6.82;4.38;;;;;;;17.42;65.90;97978.91;4868768;29;20282;-75
2022/10/27 07:57:45;;;;;;;4.90;3.28;;;;;;;17.44;66.02;97973.38;4852984;29;20278;-74
2022/10/27 08:00:15;;;;;;;5.30;3.03;;;;;;;17.59;66.03;97970.69;4867489;28;20194;-75
2022/10/27 08:02:41;;;;;;;4.15;2.55;;;;;;;17.55;66.32;97980.19;4868055;29;20310;-75
2022/10/27 08:05:07;;;;;;;6.05;2.90;;;;;;;17.57;66.52;97972.78;4868413;29;20267;-74
2022/10/27 08:07:33;;;;;;;6.75;2.83;;;;;;;17.67;66.64;97983.28;4852770;29;20291;-75
2022/10/27 08:09:59;;;;;;;4.60;2.55;;;;;;;17.70;66.49;97972.22;4854223;28;20211;-74
2022/10/27 08:12:24;;;;;;;4.50;2.40;;;;;;;17.79;66.44;97973.22;4857280;29;20191;-75
2022/10/27 08:14:49;;;;;;;5.75;2.90;;;;;;;17.84;66.20;97975.03;4837104;29;20364;-75
2022/10/27 08:17:15;;;;;;;5.53;2.63;;;;;;;17.84;66.04;97977.69;4870097;29;20250;-75
2022/10/27 08:19:40;;;;;;;4.60;2.72;;;;;;;17.92;65.96;97976.34;4851100;29;20729;-75
2022/10/27 08:22:06;;;;;;;5.05;2.97;;;;;;;17.98;66.05;97983.16;4867666;29;20646;-75
2022/10/27 08:24:31;;;;;;;5.53;2.20;;;;;;;18.03;65.91;97975.22;4870327;28;20365;-75
2022/10/27 08:26:57;;;;;;;3.47;2.03;;;;;;;18.11;65.81;97985.19;4867932;29;20211;-74
2022/10/27 08:29:22;;;;;;;3.97;1.80;;;;;;;18.13;66.04;97984.94;4855536;29;20769;-75
2022/10/27 08:31:47;;;;;;;4.78;2.17;;;;;;;18.18;65.87;97990.16;4868062;29;20562;-75
2022/10/27 08:34:13;;;;;;;3.67;2.30;;;;;;;18.22;65.97;97990.41;4868349;29;20645;-75
2022/10/27 08:36:38;;;;;;;6.60;2.72;;;;;;;18.23;66.17;97984.88;4867192;29;20661;-75
2022/10/27 08:39:04;;;;;;;4.65;2.28;;;;;;;18.24;66.42;97988.28;4868275;29;20360;-74
2022/10/27 08:41:36;;;;;;;5.22;1.98;;;;;;;18.23;66.51;97989.31;4836322;29;20430;-74
2022/10/27 08:44:13;;;;;;;5.20;2.20;;;;;;;18.32;65.87;97990.34;4883716;28;20212;-75
2022/10/27 08:46:52;;;;;;;4.28;1.98;;;;;;;18.43;65.69;97989.19;4863217;28;20172;-74
2022/10/27 08:49:26;;;;;;;4.00;2.22;;;;;;;18.52;65.38;97989.38;4867648;29;20169;-75
2022/10/27 08:51:54;;;;;;;4.65;3.03;;;;;;;18.54;65.27;97992.53;4882294;28;20701;-75
2022/10/27 08:54:22;;;;;;;3.72;2.25;;;;;;;18.71;65.46;97989.50;4867781;29;20278;-75
2022/10/27 08:56:48;;;;;;;5.47;2.78;;;;;;;18.76;65.28;97994.72;4851801;29;20657;-75
2022/10/27 08:59:18;;;;;;;4.97;2.25;;;;;;;18.92;65.18;97992.78;4867728;29;20333;-75
2022/10/27 09:01:51;;;;;;;4.05;2.03;;;;;;;19.02;65.64;97994.53;4851472;29;20164;-75
2022/10/27 09:04:29;;;;;;;3.75;2.50;;;;;;;19.14;65.30;97997.59;4869635;28;20113;-75
2022/10/27 09:07:12;;;;;;;4.50;2.10;;;;;;;19.30;65.11;97992.16;4867465;29;20250;-75
2022/10/27 09:09:49;;;;;;;6.22;2.60;;;;;;;19.41;65.48;97988.31;4867414;29;20219;-74
2022/10/27 09:12:34;;;;;;;4.20;2.40;;;;;;;19.56;65.67;97988.13;4868322;29;20239;-75
2022/10/27 09:15:38;;;;;;;4.53;2.20;;;;;;;19.71;65.38;97978.47;4867546;28;20290;-75
2022/10/27 09:18:04;;;;;;;8.95;3.50;;;;;;;19.72;65.77;97974.72;4850749;29;20183;-75
2022/10/27 09:20:35;;;;;;;6.30;3.92;;;;;;;19.90;65.84;97971.34;4850898;29;20369;-75
2022/10/27 09:23:03;;;;;;;3.63;2.65;;;;;;;19.99;65.90;97977.56;4851158;29;20642;-75
2022/10/27 09:25:29;;;;;;;5.95;2.80;;;;;;;20.13;65.64;97969.69;4867683;29;20115;-75
2022/10/27 09:27:57;;;;;;;5.72;3.25;;;;;;;20.35;65.29;97982.31;4851509;29;20238;-75
2022/10/27 09:30:33;;;;;;;4.80;2.55;;;;;;;20.56;64.12;97982.00;4835443;29;20199;-75
2022/10/27 09:32:59;;;;;;;4.97;2.50;;;;;;;20.57;65.18;97978.28;4866992;29;20173;-75
2022/10/27 09:35:27;;;;;;;5.22;2.40;;;;;;;20.73;63.67;97979.66;4851147;29;20235;-75
2022/10/27 09:37:55;;;;;;;4.75;2.40;;;;;;;20.85;64.00;97984.47;4836092;29;20184;-75
2022/10/27 09:40:21;;;;;;;3.78;2.38;;;;;;;20.97;63.04;97981.34;4865811;29;20655;-75
2022/10/27 09:42:49;;;;;;;4.70;2.28;;;;;;;21.19;62.18;97982.56;4851377;29;20082;-75
2022/10/27 09:45:17;;;;;;;4.57;2.03;;;;;;;21.38;62.18;97985.09;4862765;28;20210;-75
2022/10/27 09:47:45;;;;;;;3.92;1.95;;;;;;;21.59;60.81;97983.66;4866788;29;20185;-75
2022/10/27 09:50:24;;;;;;;4.50;1.70;;;;;;;21.93;57.39;97994.88;4866092;29;20198;-75
2022/10/27 09:52:50;;;;;;;5.80;2.10;;;;;;;22.21;56.95;97991.06;4866519;29;20191;-75
2022/10/27 09:55:16;;;;;;;2.83;1.50;;;;;;;22.47;56.23;97992.38;4866962;29;20302;-75
2022/10/27 09:57:43;;;;;;;3.50;1.73;;;;;;;22.65;54.83;97987.97;4851216;29;20330;-75
2022/10/27 10:00:23;;;;;;;3.22;1.60;;;;;;;22.97;54.53;97990.31;4866390;29;20650;-74
2022/10/27 10:03:18;;;;;;;3.53;1.92;;;;;;;23.16;54.40;97986.69;4851208;29;20157;-75
2022/10/27 10:05:46;;;;;;;4.93;1.73;;;;;;;23.10;54.55;97979.91;4867042;29;20195;-75
2022/10/27 10:08:25;;;;;;;4.50;2.08;;;;;;;23.35;54.31;97979.22;4835650;29;20254;-75
2022/10/27 10:11:05;;;;;;;4.65;2.17;;;;;;;23.51;52.94;97982.25;4867044;29;20290;-75
2022/10/27 10:13:32;;;;;;;4.53;2.03;;;;;;;23.46;53.05;97978.94;4851344;29;20235;-75
2022/10/27 10:16:13;;;;;;;3.97;1.83;;;;;;;23.72;52.94;97981.69;4851290;29;20203;-75
2022/10/27 10:18:40;;;;;;;5.70;2.25;;;;;;;23.59;52.00;97977.28;4851173;29;20197;-75
2022/10/27 10:21:11;;;;;;;6.00;2.30;;;;;;;23.75;50.82;97981.84;4866343;29;20195;-75
2022/10/27 10:23:45;;;;;;;4.50;1.70;;;;;;;24.01;49.98;97975.78;4868687;29;20291;-75
2022/10/27 10:26:23;;;;;;;5.10;1.65;;;;;;;24.03;51.21;97973.59;4867167;28;20282;-75
2022/10/27 10:28:51;;;;;;;3.95;1.63;;;;;;;24.00;50.92;97970.78;4851364;29;20247;-75
2022/10/27 10:31:27;;;;;;;13.43;2.20;;;;;;;24.10;50.11;97960.59;4866592;29;20249;-75
2022/10/27 10:34:01;;;;;;;3.38;1.90;;;;;;;24.37;49.87;97964.03;4850774;29;20290;-75
2022/10/27 10:36:31;;;;;;;4.85;1.75;;;;;;;24.40;49.39;97966.06;4866951;29;20211;-75
2022/10/27 10:38:58;;;;;;;4.60;1.88;;;;;;;24.61;48.93;97965.44;4866834;29;20203;-76
2022/10/27 10:41:25;;;;;;;3.03;1.70;;;;;;;24.81;47.87;97967.41;4850624;29;20630;-75
2022/10/27 10:44:13;;;;;;;3.72;2.00;;;;;;;25.05;47.86;97960.72;4866809;29;20342;-75
2022/10/27 10:46:39;;;;;;;3.25;1.45;;;;;;;25.13;47.37;97961.81;4831359;29;20183;-75
2022/10/27 10:49:17;;;;;;;3.17;1.73;;;;;;;25.16;47.98;97950.50;4877250;28;20258;-75
2022/10/27 10:51:49;;;;;;;4.00;1.60;;;;;;;25.22;48.47;97951.88;4866167;29;20999;-75
2022/10/27 10:54:20;;;;;;;6.00;1.73;;;;;;;25.41;46.68;97954.16;4866340;29;20555;-75
2022/10/27 10:56:51;;;;;;;4.43;2.03;;;;;;;25.67;45.31;97945.19;4866691;29;20203;-75
2022/10/27 10:59:18;;;;;;;3.47;1.70;;;;;;;25.53;46.30;97948.91;4866342;29;20355;-75
2022/10/27 11:01:52;;;;;;;3.80;1.88;;;;;;;25.97;44.72;97944.06;4850776;29;20270;-75
2022/10/27 11:04:21;;;;;;;3.38;1.60;;;;;;;25.87;45.84;97947.09;4835127;29;20628;-75
2022/10/27 11:07:32;;;;;;;4.57;1.90;;;;;;;26.17;44.31;97933.69;4866376;29;20256;-75
2022/10/27 11:10:13;;;;;;;3.28;1.80;;;;;;;26.43;44.55;97935.34;4865985;29;20284;-75
2022/10/27 11:12:43;;;;;;;5.35;1.55;;;;;;;26.79;43.22;97936.53;4850570;29;20354;-74
2022/10/27 11:15:27;;;;;;;4.57;1.73;;;;;;;26.95;41.88;97932.09;4867670;28;20187;-74
2022/10/27 11:17:59;;;;;;;3.75;1.77;;;;;;;27.19;41.96;97933.19;4897000;28;20198;-74
2022/10/27 11:20:28;;;;;;;2.25;1.58;;;;;;;27.34;41.81;97929.88;4853658;29;20294;-74
2022/10/27 11:22:54;;;;;;;2.10;1.40;;;;;;;27.43;42.75;97922.50;4854063;29;20824;-74
2022/10/27 11:25:22;;;;;;;6.80;1.98;;;;;;;27.90;41.00;97925.72;4869462;29;20186;-75
2022/10/27 11:27:59;;;;;;;3.55;2.05;;;;;;;28.28;40.19;97921.81;4870215;29;20172;-74
2022/10/27 11:30:26;;;;;;;3.35;1.55;;;;;;;28.56;40.63;97913.75;4869087;29;20736;-74
2022/10/27 11:33:00;;;;;;;6.15;2.13;;;;;;;29.16;38.65;97902.91;4871259;29;20274;-74
2022/10/27 11:35:31;;;;;;;7.13;2.10;;;;;;;29.60;36.94;97904.63;4869520;29;20633;-75
2022/10/27 11:38:15;;;;;;;6.22;1.70;;;;;;;29.74;36.81;97890.72;4871328;28;20207;-75
2022/10/27 11:40:53;;;;;;;6.55;2.05;;;;;;;28.73;35.97;97893.88;4871279;29;20279;-74
2022/10/27 11:43:27;;;;;;;5.72;2.50;;;;;;;29.91;36.21;97895.66;4884950;28;20215;-74